METAR Data

Data at: 1207 UTC 24 May 2022

METAR for:KEEN (Keene/Hopkins Arpt, NH, US)
Text:KEEN 241156Z AUTO VRB03KT 10SM CLR 12/03 A3037 RMK AO2 SLP286 T01220028 10122 20067 53009 $
Temperature: 12.2°C ( 54°F)
Dewpoint: 2.8°C ( 37°F) [RH = 53%]
Pressure (altimeter):30.37 inches Hg (1028.5 mb) [Sea level pressure: 1028.6 mb]
Winds:variable direction winds at 3 MPH (3 knots; 1.5 m/s)
Visibility:10 or more sm (16+ km)
Ceiling:at least 12,000 feet AGL
Clouds:sky clear below 12,000 feet AGL
QC Flag:automated observation with no human augmentation; SOME DATA ABOVE MAY BE INACCURATE!!!"$" is an indication the sensor requires maintenance.